Meteo Giornale » Osservazioni meteo Turkmenistan » Ashgabat
ore: 08:00 - Osservazioni Meteo Ashgabat
Lat. 37° 59' N Lon. 58° 22' E Alt. metri s.l.m.
26 °C
Molto Nuvoloso
Temp. 24 Ore
24 °C
36 °C
Nord-Est
11.1 Km/h
Dew point 4 °C
Umidità 24 %
Visibilità 7 Km
Il sole sorge alle ore 06:36
Il sole tramonta alle ore 19:36
| Data e Ora | Cielo e Fenomeni | T °C | DP °C | Um. % | Pres. hPa | Vis. km | Vento km/h | |
|---|---|---|---|---|---|---|---|---|
| Oggi h: 08:00 | Molto Nuvoloso | 26 | 4 | 24 | 1013 | 7 | NE 11.1 | |
| Oggi h: 07:00 | Molto Nuvoloso | 24 | 2 | 23 | 1012 | 7 | S 11.1 | |
| Oggi h: 06:00 | Sereno | 24 | 3 | 25 | 1013 | 7 | N 3.7 | |
| Oggi h: 05:00 | Sereno | 24 | 1 | 22 | 1013 | 6 | O/SO 7.4 | |
| Oggi h: 04:00 | Sereno | 24 | 3 | 25 | 1014 | 7 | N/NO 11.1 | |
| Oggi h: 03:00 | Sereno | 24 | 3 | 25 | 1013 | 6 | O/NO 11.1 | |
| Oggi h: 02:00 | Sereno | 26 | 3 | 22 | 1013 | 7 | O 7.4 | |
| Oggi h: 01:00 | Sereno | 29 | 3 | 18 | 1012 | 7 | E/NE 11.1 | |
| Oggi h: 00:00 | Sereno | 30 | 5 | 20 | 1012 | 10 | E/NE 18.5 | |
| Ieri h: 23:00 | Sereno | 31 | 7 | 22 | 1011 | 10 | E/NE 22.2 | |
| Ieri h: 22:00 | Sereno | 31 | 12 | 31 | 1011 | 10 | NE 11.1 | |
| Ieri h: 21:00 | Poco Nuvoloso | 32 | 11 | 27 | 1011 | 10 | SE 11.1 | |
| Ieri h: 20:00 | Poco Nuvoloso | 33 | 11 | 26 | 1011 | 10 | SE 14.8 | |
| Ieri h: 19:00 | Sereno | 35 | 10 | 21 | 1011 | 10 | SE 14.8 | |
| Ieri h: 18:00 | Sereno | 36 | 10 | 20 | 1011 | 10 | E/SE 14.8 | |
| Ieri h: 17:00 | Sereno | 36 | 10 | 20 | 1011 | 10 | E/SE 14.8 | |
| Ieri h: 15:00 | Sereno | 35 | 10 | 21 | 1011 | 9 | E/SE 14.8 | |
| Ieri h: 14:00 | Nuvoloso | 34 | 11 | 24 | 1013 | 10 | N 7.4 | |
| Ieri h: 13:00 | Nuvoloso | 33 | 12 | 27 | 1014 | 10 | N/NO 11.1 | |
| Ieri h: 12:00 | Nuvoloso | 32 | 12 | 29 | 1014 | 10 | O 14.8 | |
| Ieri h: 11:00 | Molto Nuvoloso | 30 | 12 | 33 | 1015 | 10 | O 14.8 | |
| Ieri h: 10:00 | Molto Nuvoloso | 29 | 12 | 35 | 1015 | 10 | O/NO 14.8 | |
| Ieri h: 09:00 | Molto Nuvoloso | 29 | 12 | 35 | 1015 | 10 | O/NO 18.5 | |



